Terminal Aerodrome Forecast
Issued by NWS Sterling, VA

Current Version | Previous Version | Graphics & Text | Print | Product List | Glossary On
Versions: 1 2 3 4 5 6 7 8 9 10 11 12 13 14 15 16
000
FTUS41 KLWX 251755
TAFMRB
TAF
KMRB 251755Z 2518/2618 27011G17KT P6SM FEW050
     FM252300 VRB04KT P6SM BKN035 OVC120
     FM260800 04007KT 3SM -SN OVC025
     FM261100 03007KT 4SM -SN OVC015
     FM261600 03004KT P6SM BKN030=

USA.gov is the U.S. government's official web portal to all federal, state and local government web resources and services.